Terminal Aerodrome Forecast
Issued by NWS Oklahoma City, OK

Home | Current Version | Previous Version | Text Only | Print | Product List | Glossary On
Versions: 1 2 3 4 5 6 7 8 9 10 11 12 13 14 15
000
FTUS44 KOUN 251737
TAFOUN
TAF
KOUN 251737Z 2518/2618 20020G25KT P6SM BKN030
     FM252000 19020G25KT P6SM SCT040
     FM260100 17013KT P6SM SCT020 SCT250
      TEMPO 2602/2606 BKN020
     FM261300 18015G20KT P6SM SCT020 BKN250
     FM261600 19020G25KT P6SM BKN050 OVC250=

USA.gov is the U.S. government's official web portal to all federal, state and local government web resources and services.